MTJ200 VHHH-RJTT
Flight info
| Callsign | MTJ200 |
|---|---|
| Flight time | N/A |
| Altitude | 37000 |
| Route | DALOL V631 ENVAR M750 BILLY Y21 AKSEL |
| Aircraft | CL60/M-SBDE1E2E3FGHIJ1J4J5J7M3RWXYZ/LB1V1D1 |
Departure
| Time | 2026-05-05 07:16 |
|---|---|
| Airport | Hong Kong International Airport (VHHH) |
Arrival
| Time | N/A |
|---|---|
| Airport | Tokyo Haneda International Airport (RJTT) |
| Time | Latitude | Longitude | Altitude | Speed | Heading |
|---|---|---|---|---|---|
| 2026-05-05 06:49 | 22.29663 | 113.91085 | 35 ft | 0 kts | 58° |
| 2026-05-05 07:03 | 22.29666 | 113.91090 | 35 ft | 4 kts | 56° |
| 2026-05-05 07:03 | 22.29721 | 113.91084 | 35 ft | 8 kts | 324° |
| 2026-05-05 07:03 | 22.29777 | 113.91045 | 35 ft | 10 kts | 340° |
| 2026-05-05 07:03 | 22.29843 | 113.91061 | 35 ft | 11 kts | 61° |
| 2026-05-05 07:04 | 22.29876 | 113.91163 | 35 ft | 16 kts | 72° |
| 2026-05-05 07:04 | 22.29917 | 113.91285 | 35 ft | 18 kts | 70° |
| 2026-05-05 07:04 | 22.29958 | 113.91406 | 35 ft | 16 kts | 70° |
| 2026-05-05 07:04 | 22.29989 | 113.91500 | 35 ft | 12 kts | 71° |
| 2026-05-05 07:05 | 22.30040 | 113.91580 | 35 ft | 14 kts | 9° |
| 2026-05-05 07:05 | 22.30147 | 113.91550 | 35 ft | 16 kts | 342° |
| 2026-05-05 07:05 | 22.30261 | 113.91511 | 35 ft | 15 kts | 341° |
| 2026-05-05 07:05 | 22.30331 | 113.91439 | 35 ft | 15 kts | 268° |
| 2026-05-05 07:06 | 22.30297 | 113.91323 | 35 ft | 17 kts | 250° |
| 2026-05-05 07:06 | 22.30254 | 113.91188 | 35 ft | 20 kts | 251° |
| 2026-05-05 07:06 | 22.30208 | 113.91043 | 35 ft | 21 kts | 251° |
| 2026-05-05 07:06 | 22.30157 | 113.90886 | 35 ft | 23 kts | 251° |
| 2026-05-05 07:07 | 22.30133 | 113.90742 | 35 ft | 13 kts | 313° |
| 2026-05-05 07:07 | 22.30221 | 113.90700 | 35 ft | 14 kts | 342° |
| 2026-05-05 07:07 | 22.30326 | 113.90662 | 35 ft | 17 kts | 341° |
| 2026-05-05 07:07 | 22.30446 | 113.90617 | 35 ft | 19 kts | 341° |
| 2026-05-05 07:08 | 22.30578 | 113.90574 | 35 ft | 19 kts | 342° |
| 2026-05-05 07:08 | 22.30693 | 113.90530 | 35 ft | 15 kts | 340° |
| 2026-05-05 07:08 | 22.30789 | 113.90491 | 34 ft | 14 kts | 341° |
| 2026-05-05 07:08 | 22.30884 | 113.90456 | 35 ft | 11 kts | 340° |
| 2026-05-05 07:09 | 22.30947 | 113.90431 | 35 ft | 4 kts | 341° |
| 2026-05-05 07:09 | 22.30956 | 113.90427 | 35 ft | 0 kts | 341° |
| 2026-05-05 07:09 | 22.30957 | 113.90427 | 35 ft | 0 kts | 341° |
| 2026-05-05 07:10 | 22.30966 | 113.90424 | 35 ft | 0 kts | 343° |
| 2026-05-05 07:10 | 22.30985 | 113.90421 | 35 ft | 8 kts | 8° |
| 2026-05-05 07:10 | 22.31038 | 113.90475 | 35 ft | 11 kts | 50° |
| 2026-05-05 07:11 | 22.31105 | 113.90467 | 35 ft | 13 kts | 280° |
| 2026-05-05 07:11 | 22.31086 | 113.90356 | 35 ft | 16 kts | 250° |
| 2026-05-05 07:11 | 22.31054 | 113.90236 | 34 ft | 17 kts | 258° |
| 2026-05-05 07:11 | 22.31019 | 113.90125 | 35 ft | 14 kts | 246° |
| 2026-05-05 07:12 | 22.30983 | 113.90031 | 35 ft | 10 kts | 250° |
| 2026-05-05 07:12 | 22.30962 | 113.89960 | 34 ft | 10 kts | 252° |
| 2026-05-05 07:12 | 22.30978 | 113.89904 | 35 ft | 7 kts | 325° |
| 2026-05-05 07:12 | 22.31004 | 113.89893 | 34 ft | 0 kts | 341° |
| 2026-05-05 07:14 | 22.31038 | 113.89880 | 34 ft | 8 kts | 342° |
| 2026-05-05 07:14 | 22.31105 | 113.89875 | 35 ft | 11 kts | 31° |
| 2026-05-05 07:14 | 22.31132 | 113.89920 | 35 ft | 0 kts | 73° |
| 2026-05-05 07:15 | 22.31172 | 113.90041 | 35 ft | 48 kts | 70° |
| 2026-05-05 07:16 | 22.31382 | 113.90688 | 35 ft | 132 kts | 70° |
| 2026-05-05 07:16 | 22.31744 | 113.91795 | 324 ft | 176 kts | 70° |
| 2026-05-05 07:16 | 22.32168 | 113.93116 | 1094 ft | 193 kts | 71° |
| 2026-05-05 07:16 | 22.32600 | 113.94472 | 2020 ft | 199 kts | 72° |
| 2026-05-05 07:17 | 22.33056 | 113.95911 | 2783 ft | 213 kts | 73° |
| 2026-05-05 07:17 | 22.33677 | 113.97419 | 3610 ft | 229 kts | 59° |
| 2026-05-05 07:17 | 22.34574 | 113.98849 | 4681 ft | 236 kts | 56° |
| 2026-05-05 07:17 | 22.35499 | 114.00304 | 5755 ft | 242 kts | 56° |
| 2026-05-05 07:18 | 22.36447 | 114.01800 | 6785 ft | 248 kts | 56° |
| 2026-05-05 07:18 | 22.37415 | 114.03331 | 7790 ft | 253 kts | 55° |
| 2026-05-05 07:18 | 22.38408 | 114.04903 | 8733 ft | 260 kts | 55° |
| 2026-05-05 07:18 | 22.39394 | 114.06541 | 9673 ft | 266 kts | 63° |
| 2026-05-05 07:19 | 22.39910 | 114.08441 | 10560 ft | 270 kts | 88° |
| 2026-05-05 07:19 | 22.39652 | 114.10529 | 10815 ft | 302 kts | 113° |
| 2026-05-05 07:19 | 22.38759 | 114.12742 | 10823 ft | 342 kts | 117° |
| 2026-05-05 07:19 | 22.37742 | 114.15205 | 11146 ft | 368 kts | 116° |
| 2026-05-05 07:20 | 22.36701 | 114.17753 | 11811 ft | 380 kts | 116° |
| 2026-05-05 07:20 | 22.35626 | 114.20390 | 12575 ft | 387 kts | 116° |
| 2026-05-05 07:20 | 22.34537 | 114.23065 | 13327 ft | 393 kts | 116° |
| 2026-05-05 07:20 | 22.33150 | 114.25604 | 14069 ft | 393 kts | 134° |
| 2026-05-05 07:21 | 22.31043 | 114.27441 | 14777 ft | 391 kts | 152° |
| 2026-05-05 07:21 | 22.28761 | 114.29003 | 15432 ft | 397 kts | 151° |
| 2026-05-05 07:21 | 22.26426 | 114.30609 | 16148 ft | 401 kts | 151° |
| 2026-05-05 07:21 | 22.24044 | 114.32261 | 16805 ft | 406 kts | 151° |
| 2026-05-05 07:22 | 22.21680 | 114.33919 | 17462 ft | 410 kts | 151° |
| 2026-05-05 07:22 | 22.19268 | 114.35634 | 18126 ft | 414 kts | 150° |
| 2026-05-05 07:22 | 22.16882 | 114.37356 | 18743 ft | 419 kts | 150° |
| 2026-05-05 07:22 | 22.14468 | 114.39129 | 19333 ft | 423 kts | 149° |
| 2026-05-05 07:23 | 22.12040 | 114.40962 | 19894 ft | 428 kts | 148° |
| 2026-05-05 07:23 | 22.09597 | 114.42874 | 20446 ft | 433 kts | 148° |
| 2026-05-05 07:23 | 22.07180 | 114.44772 | 20983 ft | 437 kts | 147° |
| 2026-05-05 07:23 | 22.04697 | 114.46722 | 21469 ft | 441 kts | 148° |
| 2026-05-05 07:24 | 22.02186 | 114.48693 | 21968 ft | 445 kts | 148° |
| 2026-05-05 07:24 | 21.99673 | 114.50667 | 22492 ft | 448 kts | 148° |
| 2026-05-05 07:24 | 21.97202 | 114.52673 | 22990 ft | 453 kts | 143° |
| 2026-05-05 07:24 | 21.95027 | 114.55225 | 23466 ft | 463 kts | 130° |
| 2026-05-05 07:25 | 21.93100 | 114.57973 | 23919 ft | 467 kts | 130° |
| 2026-05-05 07:25 | 21.91124 | 114.60784 | 24390 ft | 471 kts | 130° |
| 2026-05-05 07:25 | 21.89135 | 114.63609 | 24856 ft | 474 kts | 130° |
| 2026-05-05 07:25 | 21.87158 | 114.66415 | 25296 ft | 477 kts | 130° |
| 2026-05-05 07:26 | 21.85144 | 114.69273 | 25695 ft | 481 kts | 130° |
| 2026-05-05 07:26 | 21.83116 | 114.72149 | 26106 ft | 484 kts | 130° |
| 2026-05-05 07:26 | 21.81086 | 114.75026 | 26492 ft | 487 kts | 130° |
| 2026-05-05 07:26 | 21.79029 | 114.77940 | 26872 ft | 490 kts | 130° |
| 2026-05-05 07:27 | 21.77055 | 114.80967 | 27245 ft | 496 kts | 123° |
| 2026-05-05 07:27 | 21.75666 | 114.84399 | 27608 ft | 503 kts | 108° |
| 2026-05-05 07:27 | 21.75068 | 114.88066 | 27940 ft | 507 kts | 93° |
| 2026-05-05 07:27 | 21.75241 | 114.91873 | 28213 ft | 511 kts | 83° |
| 2026-05-05 07:28 | 21.75635 | 114.95705 | 28507 ft | 515 kts | 83° |
| 2026-05-05 07:28 | 21.76017 | 114.99515 | 28819 ft | 517 kts | 83° |
| 2026-05-05 07:28 | 21.76402 | 115.03365 | 29136 ft | 520 kts | 83° |
| 2026-05-05 07:28 | 21.76784 | 115.07192 | 29466 ft | 521 kts | 83° |
| 2026-05-05 07:29 | 21.77173 | 115.11107 | 29756 ft | 523 kts | 83° |
| 2026-05-05 07:29 | 21.77558 | 115.14976 | 30024 ft | 525 kts | 83° |
| 2026-05-05 07:29 | 21.77941 | 115.18849 | 30280 ft | 526 kts | 83° |
| 2026-05-05 07:29 | 21.78329 | 115.22780 | 30518 ft | 528 kts | 83° |
| 2026-05-05 07:30 | 21.78719 | 115.26730 | 30747 ft | 530 kts | 83° |
| 2026-05-05 07:30 | 21.79487 | 115.34559 | 31354 ft | 529 kts | 83° |
| 2026-05-05 07:30 | 21.79871 | 115.38478 | 31704 ft | 527 kts | 83° |
| 2026-05-05 07:31 | 21.80255 | 115.42412 | 32023 ft | 526 kts | 83° |
| 2026-05-05 07:31 | 21.80633 | 115.46298 | 32338 ft | 525 kts | 83° |
| 2026-05-05 07:31 | 21.81009 | 115.50163 | 32617 ft | 525 kts | 83° |
| 2026-05-05 07:31 | 21.81386 | 115.54056 | 32914 ft | 524 kts | 83° |
| 2026-05-05 07:32 | 21.81765 | 115.57982 | 33223 ft | 524 kts | 83° |
| 2026-05-05 07:32 | 21.82137 | 115.61842 | 33514 ft | 523 kts | 83° |
| 2026-05-05 07:32 | 21.82511 | 115.65729 | 33837 ft | 522 kts | 83° |
| 2026-05-05 07:32 | 21.82882 | 115.69598 | 34147 ft | 520 kts | 83° |
| 2026-05-05 07:33 | 21.83255 | 115.73491 | 34436 ft | 519 kts | 83° |
| 2026-05-05 07:33 | 21.83619 | 115.77306 | 34719 ft | 518 kts | 83° |
| 2026-05-05 07:33 | 21.83984 | 115.81134 | 34972 ft | 517 kts | 83° |
| 2026-05-05 07:33 | 21.84351 | 115.85004 | 35211 ft | 517 kts | 83° |
| 2026-05-05 07:34 | 21.84713 | 115.88822 | 35461 ft | 516 kts | 83° |
| 2026-05-05 07:34 | 21.85074 | 115.92645 | 35678 ft | 516 kts | 83° |
| 2026-05-05 07:34 | 21.85438 | 115.96502 | 35880 ft | 516 kts | 83° |
| 2026-05-05 07:34 | 21.85794 | 116.00286 | 36074 ft | 515 kts | 83° |
| 2026-05-05 07:35 | 21.86155 | 116.04131 | 36254 ft | 516 kts | 83° |
| 2026-05-05 07:35 | 21.86513 | 116.07959 | 36456 ft | 515 kts | 83° |
| 2026-05-05 07:35 | 21.86872 | 116.11800 | 36645 ft | 515 kts | 83° |
| 2026-05-05 07:35 | 21.87224 | 116.15585 | 36814 ft | 514 kts | 83° |
| 2026-05-05 07:36 | 21.87582 | 116.19436 | 36947 ft | 515 kts | 83° |
| 2026-05-05 07:36 | 21.87935 | 116.23245 | 36942 ft | 519 kts | 83° |
| 2026-05-05 07:36 | 21.88652 | 116.31018 | 36941 ft | 525 kts | 83° |
| 2026-05-05 07:37 | 21.89371 | 116.38848 | 36942 ft | 530 kts | 83° |
| 2026-05-05 07:37 | 21.90093 | 116.46761 | 36944 ft | 533 kts | 83° |
| 2026-05-05 07:38 | 21.90812 | 116.54672 | 36946 ft | 534 kts | 83° |
| 2026-05-05 07:38 | 21.91532 | 116.62651 | 36947 ft | 537 kts | 83° |
| 2026-05-05 07:39 | 21.92252 | 116.70664 | 36952 ft | 538 kts | 84° |
| 2026-05-05 07:39 | 21.92963 | 116.78617 | 36947 ft | 538 kts | 84° |
| 2026-05-05 07:40 | 21.93677 | 116.86661 | 36946 ft | 538 kts | 84° |
| 2026-05-05 07:40 | 21.94382 | 116.94638 | 36946 ft | 538 kts | 84° |
| 2026-05-05 07:41 | 21.95086 | 117.02659 | 36948 ft | 538 kts | 84° |
| 2026-05-05 07:41 | 21.95784 | 117.10648 | 36950 ft | 538 kts | 84° |
| 2026-05-05 07:42 | 21.96481 | 117.18671 | 36955 ft | 538 kts | 84° |
| 2026-05-05 07:42 | 21.97173 | 117.26688 | 36946 ft | 538 kts | 84° |
| 2026-05-05 07:43 | 21.97859 | 117.34680 | 36945 ft | 538 kts | 84° |
| 2026-05-05 07:43 | 21.98595 | 117.42687 | 36947 ft | 537 kts | 81° |
| 2026-05-05 07:44 | 22.00370 | 117.50460 | 36953 ft | 535 kts | 68° |
| 2026-05-05 07:44 | 22.03501 | 117.57618 | 36947 ft | 531 kts | 56° |
| 2026-05-05 07:45 | 22.07342 | 117.64395 | 36950 ft | 530 kts | 55° |
| 2026-05-05 07:45 | 22.11174 | 117.71156 | 36953 ft | 530 kts | 56° |
| 2026-05-05 07:46 | 22.15016 | 117.77941 | 36962 ft | 530 kts | 56° |
| 2026-05-05 07:46 | 22.18213 | 117.83594 | 36957 ft | 531 kts | 56° |